• Join FlightAware (Why Join?)
  • Login
  • US Flag 
08:23PM EST


 

Airport Tracker/Info


-or-


 

Live Flight TrackerFlight Track Log ✈ UAL139 ✈ 06-Feb-2014 ✈ KDEN - RJAA / NRT

Flight Track Log - Related Links

Times and Time Zones

All times are in EST time to prevent confusion due to time zone crossing. See the UAL139 flight status page for this flight to view local times or setup timezone preferences in your user account.

Time Position Orientation Groundspeed Altitude Reporting Facility
EST Latitude Longitude Course Direction KTS MPH feet Rate Location/Type
02:23PM 39.8582 -104.6755 207° Southwest 5,300  Level FlightAware ADS-B
02:35PM 39.8726 -104.6871 360° North 122 140 5,300  Level FlightAware ADS-B
02:36PM 39.8794 -104.6870 North 155 178 5,300 660 Level FlightAware ADS-B (KEIK)
02:36PM 39.8726 -104.6871 181° South 185 213 5,600 1,800 Climbing FlightAware ADS-B
02:36PM 39.8726 -104.6871 181° South 184 212 6,600 2,100 Climbing FlightAware ADS-B
02:37PM 39.9305 -104.6845 North 205 236 7,000 1,080 Climbing FlightAware ADS-B
02:37PM 39.9480 -104.6803 11° North 243 280 7,300 1,020 Climbing FlightAware ADS-B
02:37PM 39.9583 -104.6777 11° North 265 305 7,800 1,560 Climbing FlightAware ADS-B
02:38PM 40.0078 -104.6663 10° North 284 327 8,600 2,340 Climbing FlightAware ADS-B (KEIK)
02:38PM 40.0257 -104.6620 10° North 288 331 9,500 2,760 Climbing FlightAware ADS-B (KEIK)
02:38PM 40.0629 -104.6578 North 286 329 10,400 1,740 Climbing FlightAware ADS-B (KBJC)
02:39PM 40.1214 -104.6746 348° North 328 377 11,300 1,980 Climbing FlightAware ADS-B (KEIK)
02:40PM 40.1690 -104.6871 349° North 332 382 12,900 2,880 Climbing FlightAware ADS-B (KBJC)
02:40PM 40.2275 -104.7026 349° North 337 388 14,800 3,000 Climbing FlightAware ADS-B
02:41PM 40.2757 -104.7155 348° North 333 383 16,500 3,000 Climbing FlightAware ADS-B (KEIK)
02:41PM 40.3285 -104.7295 349° North 331 381 18,200 2,460 Climbing FlightAware ADS-B
02:42PM 40.3875 -104.7451 349° North 341 392 19,900 2,280 Climbing FlightAware ADS-B
02:42PM 40.4145 -104.7522 349° North 344 396 20,500 2,160 Climbing FlightAware ADS-B (KBJC)
02:43PM 40.4885 -104.7717 349° North 353 406 22,100 1,920 Climbing FlightAware ADS-B (KEIK)
02:44PM 40.5599 -104.7907 349° North 360 414 23,300 1,740 Climbing FlightAware ADS-B (KEIK)
02:44PM 40.5875 -104.7979 349° North 365 420 24,200 1,860 Climbing FlightAware ADS-B
02:45PM 40.6681 -104.8193 349° North 372 428 25,600 1,680 Climbing FlightAware ADS-B
02:46PM 40.7261 -104.8348 349° North 382 440 26,700 1,380 Climbing FlightAware ADS-B (KLHQ)
02:46PM 40.7970 -104.8569 347° North 386 444 27,600 1,380 Climbing FlightAware ADS-B (KLHQ)
02:47PM 40.8910 -104.9026 340° North 388 447 28,700 1,620 Climbing FlightAware ADS-B (KEIK)
02:47PM 40.8379 -104.8764 160° South 385 443 29,200 1,260 Climbing FlightAware ADS-B
02:48PM 40.9836 -104.9741 333° Northwest 386 444 29,900 1,080 Climbing FlightAware ADS-B (KLHQ)
02:49PM 40.9962 -104.9850 327° Northwest 393 452 30,600 1,200 Climbing FlightAware ADS-B
02:49PM 41.0782 -105.0565 327° Northwest 398 458 31,200 1,020 Climbing FlightAware ADS-B (KEIK)
02:50PM 41.1305 -105.1022 327° Northwest 405 466 31,800 900 Climbing FlightAware ADS-B (KLHQ)
02:50PM 41.1661 -105.1334 327° Northwest 412 474 32,400 960 Climbing FlightAware ADS-B (KLHQ)
02:51PM 41.2319 -105.1910 327° Northwest 417 480 33,100 960 Climbing FlightAware ADS-B (KLHQ)
02:52PM 41.2886 -105.2411 326° Northwest 422 486 33,600 780 Climbing FlightAware ADS-B (KEIK)
02:52PM 41.3704 -105.3128 327° Northwest 430 495 34,200 900 Climbing FlightAware ADS-B (KEIK)
02:53PM 41.4559 -105.3884 326° Northwest 431 496 34,900 1,020 Climbing FlightAware ADS-B (KEIK)
02:54PM 41.5272 -105.4516 326° Northwest 431 496 35,700 660 Climbing FlightAware ADS-B (KEIK)
02:55PM 41.6135 -105.5287 326° Northwest 437 503 36,000 180 Climbing FlightAware ADS-B (KEIK)
02:55PM 41.6828 -105.5904 326° Northwest 434 499 36,000  Level FlightAware ADS-B (KEIK)
02:56PM 41.7469 -105.6476 326° Northwest 433 498 36,000  Level FlightAware ADS-B (KEIK)
02:57PM 41.8170 -105.7105 326° Northwest 433 498 36,000  Level FlightAware ADS-B (KEIK)
02:57PM 41.8932 -105.7789 326° Northwest 430 495 36,000  Level FlightAware ADS-B (KEIK)
02:58PM 41.9575 -105.8370 326° Northwest 430 495 36,000  Level FlightAware ADS-B (KEIK)
02:59PM 42.0241 -105.8971 326° Northwest 430 495 36,000 360 Level FlightAware ADS-B (KEIK)
02:59PM 42.0776 -105.9457 326° Northwest 433 498 36,500 600 Climbing FlightAware ADS-B (KEIK)
03:00PM 42.1599 -106.0204 326° Northwest 437 503 36,900 540 Climbing FlightAware ADS-B (KEIK)
03:01PM 42.2286 -106.0830 326° Northwest 437 503 37,300 600 Climbing FlightAware ADS-B (KEIK)
03:01PM 42.3017 -106.1497 326° Northwest 439 505 37,700 480 Climbing FlightAware ADS-B (KEIK)
03:02PM 42.3559 -106.1993 326° Northwest 441 507 38,000 180 Climbing FlightAware ADS-B (KEIK)
03:03PM 42.4375 -106.2743 326° Northwest 443 510 38,000  Level FlightAware ADS-B (KEIK)
03:04PM 42.5134 -106.3442 326° Northwest 440 506 38,000  Level FlightAware ADS-B (KEIK)
03:04PM 42.5748 -106.4009 326° Northwest 438 504 38,000  Level FlightAware ADS-B (KEIK)
03:05PM 42.6185 -106.4414 326° Northwest 436 502 38,000  Level FlightAware ADS-B (KEIK)
03:06PM 42.7011 -106.5183 326° Northwest 437 503 38,000  Level Denver Center
03:07PM 42.7967 -106.6086 325° Northwest 436 502 38,000  Level Denver Center
03:08PM 42.9094 -106.7131 326° Northwest 438 504 38,000  Level Denver Center
03:09PM 43.0047 -106.8039 325° Northwest 436 502 38,000  Level Denver Center
03:10PM 43.1017 -106.8939 326° Northwest 438 504 38,000  Level Denver Center
03:10PM 43.1864 -106.9764 325° Northwest 440 506 38,000  Level Salt Lake Center
03:11PM 43.2867 -107.0711 325° Northwest 439 505 38,000  Level Salt Lake Center
03:12PM 43.3889 -107.1672 326° Northwest 443 510 38,000  Level Salt Lake Center
03:13PM 43.4897 -107.2656 325° Northwest 445 512 38,000  Level Salt Lake Center
03:14PM 43.5914 -107.3625 325° Northwest 445 512 38,000  Level Salt Lake Center
03:15PM 43.6942 -107.4625 325° Northwest 451 519 38,000  Level Salt Lake Center
03:17PM 43.7953 -107.5639 324° Northwest 449 517 38,000  Level Salt Lake Center
03:18PM 43.9211 -107.6819 326° Northwest 457 526 38,000  Level Salt Lake Center
03:19PM 44.0244 -107.7836 325° Northwest 454 522 38,000  Level Salt Lake Center
03:20PM 44.1278 -107.8850 325° Northwest 454 522 38,000  Level Salt Lake Center
03:21PM 44.2322 -107.9878 325° Northwest 457 526 38,000  Level Salt Lake Center
03:22PM 44.3361 -108.0911 325° Northwest 457 526 38,000  Level Salt Lake Center
03:23PM 44.4406 -108.1953 325° Northwest 459 528 38,000  Level Salt Lake Center
03:24PM 44.5456 -108.3006 324° Northwest 462 532 38,000  Level Salt Lake Center
03:25PM 44.6503 -108.4064 324° Northwest 460 529 38,000  Level Salt Lake Center
03:26PM 44.7550 -108.5111 325° Northwest 459 528 38,000  Level Salt Lake Center
03:27PM 44.8786 -108.6361 324° Northwest 455 524 38,000  Level Salt Lake Center
03:28PM 44.9814 -108.7403 324° Northwest 454 522 38,000  Level Salt Lake Center
03:29PM 45.0842 -108.8461 324° Northwest 454 522 38,000  Level Salt Lake Center
03:30PM 45.1867 -108.9517 324° Northwest 456 525 38,000  Level Salt Lake Center
03:31PM 45.2897 -109.0581 324° Northwest 458 527 38,000  Level Salt Lake Center
03:32PM 45.3928 -109.1639 324° Northwest 457 526 38,000  Level Salt Lake Center
03:33PM 45.4947 -109.2694 324° Northwest 454 522 38,000  Level Salt Lake Center
03:34PM 45.5961 -109.3764 324° Northwest 453 521 38,000  Level Salt Lake Center
03:35PM 45.7183 -109.5039 324° Northwest 455 524 38,000  Level Salt Lake Center
03:36PM 45.8200 -109.6117 324° Northwest 454 522 38,000  Level Salt Lake Center
03:37PM 45.9217 -109.7197 324° Northwest 454 522 38,000  Level Salt Lake Center
03:38PM 46.0231 -109.8286 323° Northwest 456 525 38,000  Level Salt Lake Center
03:39PM 46.1225 -109.9381 323° Northwest 454 522 38,000  Level Salt Lake Center
03:40PM 46.2236 -110.0492 323° Northwest 456 525 38,000  Level Salt Lake Center
03:41PM 46.3239 -110.1569 323° Northwest 452 520 38,000  Level Salt Lake Center
03:42PM 46.4436 -110.2883 323° Northwest 452 520 38,000  Level Salt Lake Center
03:43PM 46.5444 -110.3986 323° Northwest 453 521 38,000  Level Salt Lake Center
03:44PM 46.6461 -110.5108 323° Northwest 459 528 38,000 -60 Level Salt Lake Center
03:45PM 46.7436 -110.6161 324° Northwest 460 529 37,900 -60 Descending Salt Lake Center
03:46PM 46.8436 -110.7283 323° Northwest 456 525 37,900  Level Salt Lake Center
03:47PM 46.9439 -110.8403 323° Northwest 455 524 37,900  Level Salt Lake Center
03:48PM 47.0447 -110.9517 323° Northwest 455 524 38,000  Climbing Salt Lake Center
03:49PM 47.1672 -111.0917 322° Northwest 455 524 38,000 -60 Level Salt Lake Center
03:50PM 47.2650 -111.2019 323° Northwest 454 522 37,900  Descending Salt Lake Center
03:51PM 47.3661 -111.3161 323° Northwest 454 522 38,000  Climbing Salt Lake Center
03:53PM 47.4644 -111.4381 320° Northwest 456 525 37,900  Descending Salt Lake Center
03:54PM 47.5378 -111.5906 305° West 450 518 38,000  Climbing Salt Lake Center
03:55PM 47.6114 -111.7425 306° West 450 518 38,000 -60 Level Salt Lake Center
03:56PM 47.6836 -111.8961 305° West 452 520 37,900  Descending Salt Lake Center
03:57PM 47.7586 -112.0492 306° West 455 524 38,000  Climbing Salt Lake Center
03:58PM 47.8303 -112.2031 305° West 454 522 37,900 -60 Descending Salt Lake Center
03:59PM 47.9047 -112.3581 306° West 459 528 37,900  Level Salt Lake Center
04:00PM 47.9922 -112.5444 305° West 459 528 38,000  Climbing Salt Lake Center
04:01PM 48.0606 -112.6892 305° West 459 528 37,900  Descending Salt Lake Center
04:02PM 48.1339 -112.8458 305° West 462 532 38,000  Climbing Salt Lake Center
04:03PM 48.2067 -113.0042 305° West 463 533 38,000 -60 Level Salt Lake Center
04:04PM 48.2939 -113.1931 305° West 463 533 37,900 -60 Descending Salt Lake Center
04:05PM 48.3672 -113.3519 305° West 466 536 37,900  Level Salt Lake Center
04:06PM 48.4394 -113.5114 304° West 466 536 38,000  Climbing Salt Lake Center
04:07PM 48.5117 -113.6722 304° West 467 537 38,000 -60 Level Salt Lake Center
04:08PM 48.5853 -113.8333 305° West 468 539 37,900 -60 Descending Salt Lake Center
04:09PM 48.6569 -113.9947 304° West 468 539 37,900  Level Salt Lake Center
04:10PM 48.7439 -114.1900 304° West 470 541 37,900  Level Salt Lake Center
04:11PM 48.8158 -114.3531 304° West 469 540 37,900  Level Salt Lake Center
04:12PM 48.8869 -114.5158 304° West 467 537 37,900  Level Salt Lake Center
04:13PM 48.9333 -114.6333 301° West 470 541 38,000  Climbing Vancouver Center
04:14PM 49.0167 -114.8333 302° West 470 541 38,000 -60 Level Vancouver Center
04:15PM 49.0736 -114.9456 308° West 470 541 37,900  Descending Seattle Center
04:15PM 49.1000 -115.0833 286° West 470 541 38,000 60 Climbing Edmonton Center
04:16PM 49.1500 -115.1333 327° Northwest 470 541 38,000  Level Vancouver Center
04:17PM 49.2333 -115.3333 303° West 480 552 38,000  Level Vancouver Center
04:18PM 49.3000 -115.5000 302° West 470 541 38,000  Level Vancouver Center
04:19PM 49.3667 -115.6667 302° West 470 541 38,000  Level Vancouver Center
04:20PM 49.4500 -115.8333 308° West 470 541 38,000  Level Vancouver Center
04:21PM 49.5167 -116.0000 302° West 470 541 38,000  Level Vancouver Center
04:22PM 49.5833 -116.1667 302° West 470 541 38,000  Level Vancouver Center
04:23PM 49.6667 -116.3333 308° West 470 541 38,000  Level Vancouver Center
04:24PM 49.7167 -116.5167 293° West 470 541 38,000  Level Vancouver Center
04:25PM 49.8000 -116.6833 308° West 470 541 38,000  Level Vancouver Center
04:26PM 49.8667 -116.8500 302° West 470 541 38,000  Level Vancouver Center
04:27PM 49.9333 -117.0167 302° West 470 541 38,000  Level Vancouver Center
04:28PM 50.0000 -117.2000 300° West 470 541 38,000  Level Vancouver Center
04:29PM 50.0667 -117.3667 302° West 470 541 38,000  Level Vancouver Center
04:30PM 50.1333 -117.5500 300° West 470 541 38,000  Level Vancouver Center
04:31PM 50.2167 -117.7167 308° West 470 541 38,000  Level Vancouver Center
04:32PM 50.2667 -117.8833 295° West 470 541 38,000  Level Vancouver Center
04:33PM 50.3500 -118.0667 306° West 470 541 38,000  Level Vancouver Center
04:34PM 50.4000 -118.2333 295° West 470 541 38,000  Level Vancouver Center
04:35PM 50.4833 -118.4167 306° West 470 541 38,000  Level Vancouver Center
04:36PM 50.5333 -118.6000 293° West 470 541 38,000  Level Vancouver Center
04:37PM 50.6167 -118.7667 308° West 470 541 38,000  Level Vancouver Center
04:38PM 50.6667 -118.9500 293° West 470 541 38,000  Level Vancouver Center
04:39PM 50.7667 -119.1167 314° West 470 541 38,000  Level Vancouver Center
04:40PM 50.8333 -119.2833 302° West 470 541 38,000  Level Vancouver Center
04:41PM 50.9333 -119.4333 317° Northwest 470 541 38,000  Level Vancouver Center
04:42PM 51.0000 -119.6000 302° West 470 541 38,000  Level Vancouver Center
04:43PM 51.0833 -119.7500 312° West 470 541 38,000  Level Vancouver Center
04:44PM 51.1667 -119.9167 309° West 470 541 38,000  Level Vancouver Center
04:45PM 51.2500 -120.0833 309° West 470 541 38,000  Level Vancouver Center
04:46PM 51.3167 -120.2500 303° West 470 541 38,000  Level Vancouver Center
04:47PM 51.4167 -120.4167 314° West 470 541 38,000  Level Vancouver Center
04:48PM 51.5000 -120.5833 309° West 470 541 38,000  Level Vancouver Center
04:49PM 51.5833 -120.7333 312° West 470 541 38,000  Level Vancouver Center
04:50PM 51.6667 -120.9167 306° West 470 541 38,000  Level Vancouver Center
04:51PM 51.7667 -121.0667 317° Northwest 480 552 38,000  Level Vancouver Center
04:52PM 51.8500 -121.2333 309° West 480 552 38,000  Level Vancouver Center
04:53PM 51.9333 -121.3833 312° West 480 552 38,000  Level Vancouver Center
04:54PM 52.0167 -121.5667 306° West 480 552 38,000  Level Vancouver Center
04:55PM 52.1000 -121.7333 309° West 480 552 38,000  Level Vancouver Center
04:56PM 52.2000 -121.8833 317° Northwest 480 552 38,000  Level Vancouver Center
04:57PM 52.2833 -122.0500 309° West 480 552 38,000  Level Vancouver Center
04:58PM 52.3667 -122.2167 309° West 480 552 38,000  Level Vancouver Center
04:59PM 52.4500 -122.4000 307° West 480 552 38,000  Level Vancouver Center
05:00PM 52.5333 -122.5667 309° West 480 552 38,000  Level Vancouver Center
05:01PM 52.6000 -122.7333 303° West 480 552 38,000  Level Vancouver Center
05:02PM 52.7000 -122.8833 318° Northwest 480 552 38,000  Level Vancouver Center
05:03PM 52.7833 -123.0500 310° West 480 552 38,000  Level Vancouver Center
05:04PM 52.8833 -123.2500 310° West 480 552 38,000  Level Vancouver Center
05:05PM 52.9667 -123.4167 310° West 480 552 38,000  Level Vancouver Center
05:06PM 53.0500 -123.5667 313° West 480 552 38,000  Level Vancouver Center
05:07PM 53.1333 -123.7667 305° West 480 552 38,000  Level Vancouver Center
05:08PM 53.2167 -123.9333 310° West 480 552 38,000  Level Vancouver Center
05:09PM 53.3000 -124.1000 310° West 480 552 38,000  Level Vancouver Center
05:10PM 53.3833 -124.2667 310° West 480 552 38,000  Level Vancouver Center
05:11PM 53.4667 -124.4333 310° West 480 552 38,000  Level Vancouver Center
05:12PM 53.5333 -124.6167 302° West 480 552 38,000  Level Vancouver Center
05:13PM 53.6167 -124.8167 305° West 480 552 38,000  Level Vancouver Center
05:14PM 53.7000 -124.9833 310° West 480 552 38,000  Level Vancouver Center
05:15PM 53.7833 -125.1833 305° West 480 552 38,000  Level Vancouver Center
05:16PM 53.8667 -125.3500 310° West 480 552 38,000  Level Vancouver Center
05:17PM 53.9333 -125.5333 302° West 480 552 38,000  Level Vancouver Center
05:18PM 54.0333 -125.7000 316° Northwest 480 552 38,000  Level Vancouver Center
05:19PM 54.1000 -125.8667 304° West 480 552 38,000  Level Vancouver Center
05:20PM 54.2000 -126.0833 308° West 480 552 38,000  Level Vancouver Center
05:21PM 54.2500 -126.2500 297° West 480 552 38,000  Level Vancouver Center
05:22PM 54.3500 -126.4333 313° West 480 552 38,000  Level Vancouver Center
05:23PM 54.4333 -126.6000 311° West 480 552 38,000  Level Vancouver Center
05:24PM 54.4833 -126.8167 292° West 480 552 38,000  Level Vancouver Center
05:25PM 54.5167 -127.0500 284° West 480 552 38,000  Level Vancouver Center
05:26PM 54.5500 -127.2833 284° West 490 564 38,000  Level Vancouver Center
05:27PM 54.6167 -127.4833 300° West 490 564 38,000  Level Vancouver Center
05:28PM 54.6333 -127.7167 277° West 490 564 38,000  Level Vancouver Center
05:29PM 54.6833 -127.9500 290° West 480 552 38,000  Level Vancouver Center
05:30PM 54.7167 -128.1667 285° West 480 552 38,000  Level Vancouver Center
05:31PM 54.7500 -128.4000 284° West 480 552 38,000  Level Vancouver Center
05:32PM 54.7833 -128.6000 286° West 480 552 38,000  Level Vancouver Center
05:33PM 54.8333 -128.8333 290° West 480 552 38,000  Level Vancouver Center
05:34PM 54.8667 -129.0500 285° West 480 552 38,000  Level Vancouver Center
05:35PM 54.9000 -129.2833 284° West 480 552 38,000  Level Vancouver Center
05:36PM 54.9333 -129.4833 286° West 470 541 38,000  Level Vancouver Center
05:37PM 54.9667 -129.7333 283° West 480 552 38,000  Level Vancouver Center
05:38PM 55.0167 -129.9333 294° West 480 552 38,000  Level Vancouver Center
05:39PM 55.0333 -130.1667 277° West 480 552 38,000  Level Vancouver Center
05:40PM 55.0667 -130.3833 285° West 470 541 38,000  Level Vancouver Center
05:41PM 55.1000 -130.4667 305° West 480 552 38,000  Level Anchorage Center
05:42PM 55.1333 -130.7000 284° West 480 552 38,000  Level Anchorage Center
05:43PM 55.1667 -130.9167 285° West 480 552 38,000  Level Anchorage Center
05:44PM 55.2000 -131.1500 284° West 480 552 38,000  Level Anchorage Center
05:45PM 55.2333 -131.3667 285° West 480 552 38,000  Level Anchorage Center
05:46PM 55.2667 -131.6000 284° West 480 552 38,000  Level Anchorage Center
05:47PM 55.2833 -131.8167 278° West 480 552 38,000  Level Anchorage Center
05:48PM 55.3167 -132.0500 284° West 480 552 38,000  Level Anchorage Center
05:49PM 55.3500 -132.2667 285° West 480 552 38,000  Level Anchorage Center
05:50PM 55.3667 -132.4667 278° West 470 541 38,000  Level Anchorage Center
05:51PM 55.4000 -132.6833 285° West 470 541 38,000  Level Anchorage Center
05:52PM 55.4333 -132.9167 284° West 480 552 38,000  Level Anchorage Center
05:53PM 55.4667 -133.1500 284° West 480 552 38,000  Level Anchorage Center
05:54PM 55.5000 -133.3667 285° West 480 552 38,000  Level Anchorage Center
05:55PM 55.5167 -133.6000 277° West 480 552 38,000  Level Anchorage Center
05:56PM 55.5500 -133.8333 284° West 480 552 38,000  Level Anchorage Center
05:57PM 55.5833 -134.0667 284° West 480 552 38,000  Level Anchorage Center
05:58PM 55.6000 -134.3000 277° West 480 552 38,000  Level Anchorage Center
05:59PM 55.6333 -134.5167 285° West 480 552 38,000  Level Anchorage Center
06:00PM 55.6667 -134.7500 284° West 480 552 38,000  Level Anchorage Center
06:01PM 55.6833 -134.9833 277° West 470 541 38,000  Level Anchorage Center
06:02PM 55.7167 -135.2167 284° West 480 552 38,000  Level Anchorage Center
06:03PM 55.7333 -135.4500 277° West 480 552 38,000  Level Anchorage Center
06:04PM 55.7667 -135.6833 284° West 480 552 38,000  Level Anchorage Center
06:05PM 55.7833 -135.9167 277° West 480 552 38,000  Level Anchorage Center
06:06PM 55.8000 -136.1500 277° West 470 541 38,000  Level Anchorage Center
06:07PM 55.8333 -136.3833 284° West 480 552 38,000  Level Anchorage Center
06:08PM 55.8500 -136.6167 277° West 480 552 38,000  Level Anchorage Center
06:09PM 55.8833 -136.8500 284° West 480 552 38,000  Level Anchorage Center
06:10PM 55.9167 -137.0667 285° West 460 529 38,000  Level Anchorage Center
06:11PM 55.9833 -137.2667 301° West 470 541 38,000  Level Anchorage Center
06:12PM 56.0667 -137.4500 309° West 470 541 38,000  Level Anchorage Center
06:13PM 56.1333 -137.6500 301° West 470 541 38,000  Level Anchorage Center
06:14PM 56.2167 -137.8333 309° West 470 541 38,000  Level Anchorage Center
06:15PM 56.2833 -138.0333 301° West 470 541 38,000  Level Anchorage Center
06:16PM 56.3667 -138.2167 309° West 460 529 38,000  Level Anchorage Center
06:17PM 56.4333 -138.4167 301° West 460 529 38,000  Level Anchorage Center
06:18PM 56.5000 -138.6167 301° West 450 518 38,000  Level Anchorage Center
06:19PM 56.5667 -138.8000 303° West 460 529 38,000 180 Level Anchorage Center
06:20PM 56.6500 -139.0000 307° West 470 541 38,400 540 Climbing Anchorage Center
06:21PM 56.7167 -139.2000 301° West 470 541 39,100 780 Climbing Anchorage Center
06:22PM 56.7833 -139.4000 301° West 480 552 40,000 420 Climbing Anchorage Center
06:23PM 56.8500 -139.6000 301° West 470 541 40,000  Level Anchorage Center
06:24PM 56.9333 -139.8500 301° West 460 529 40,000  Level Anchorage Center
06:25PM 56.9833 -140.0000 302° West 460 529 40,000  Level Anchorage Center
06:26PM 57.0333 -140.2333 292° West 470 541 40,000  Level Anchorage Center
06:27PM 57.0667 -140.4667 285° West 470 541 40,000  Level Anchorage Center
06:28PM 57.0833 -140.7000 278° West 470 541 40,000  Level Anchorage Center
06:29PM 57.1167 -140.9500 284° West 470 541 40,000  Level Anchorage Center
06:30PM 57.1500 -141.1833 285° West 470 541 40,000  Level Anchorage Center
06:31PM 57.1833 -141.4167 285° West 470 541 40,000  Level Anchorage Center
06:32PM 57.2167 -141.6500 285° West 480 552 40,000  Level Anchorage Center
06:33PM 57.2500 -141.9500 282° West 480 552 40,000  Level Anchorage Center
06:34PM 57.2833 -142.1833 285° West 480 552 40,000  Level Anchorage Center
06:35PM 57.3167 -142.4333 284° West 480 552 40,000  Level Anchorage Center
06:36PM 57.3500 -142.6667 285° West 470 541 40,000  Level Anchorage Center
06:37PM 57.3667 -142.9000 278° West 470 541 40,000  Level Anchorage Center
06:38PM 57.4000 -143.1000 287° West 470 541 40,000  Level Anchorage Center
06:39PM 57.4167 -143.3333 278° West 470 541 40,000  Level Anchorage Center
06:40PM 57.4500 -143.5667 285° West 470 541 40,000  Level Anchorage Center
06:41PM 57.4667 -143.8167 277° West 470 541 40,000  Level Anchorage Center
06:42PM 57.5000 -144.0500 285° West 470 541 40,000  Level Anchorage Center
06:43PM 57.5167 -144.3000 277° West 470 541 40,000  Level Anchorage Center
06:44PM 57.5500 -144.5833 282° West 470 541 40,000  Level Anchorage Center
06:45PM 57.5833 -144.8167 285° West 460 529 40,000  Level Anchorage Center
06:46PM 57.6000 -145.0667 277° West 460 529 40,000  Level Anchorage Center
06:47PM 57.6333 -145.3000 285° West 470 541 40,000  Level Anchorage Center
06:48PM 57.6500 -145.5500 277° West 460 529 40,000  Level Anchorage Center
06:49PM 57.6667 -145.7833 278° West 460 529 40,000  Level Anchorage Center
06:50PM 57.7000 -146.0167 285° West 460 529 40,000  Level Anchorage Center
06:51PM 57.7167 -146.2833 277° West 480 552 40,000  Level Anchorage Center
06:52PM 57.7333 -146.5333 277° West 480 552 40,000  Level Anchorage Center
06:53PM 57.7667 -146.7833 284° West 480 552 40,000  Level Anchorage Center
06:59PM 57.8893 -148.3028 284° West 473 544 40,000  Level FlightAware ADS-B (PAEN / ENA)
07:01PM 57.9220 -148.7696 278° West 470 541 40,000  Level FlightAware ADS-B (PAEN / ENA)
07:02PM 57.9312 -148.9054 277° West 471 542 40,000  Level FlightAware ADS-B (PAEN / ENA)
07:02PM 57.9437 -149.0916 277° West 471 542 40,000  Level FlightAware ADS-B (PAEN / ENA)
07:03PM 57.9512 -149.2074 277° West 470 541 40,000  Level FlightAware ADS-B (PAEN / ENA)
07:03PM 57.9582 -149.3171 277° West 468 539 40,000  Level FlightAware ADS-B (PAEN / ENA)
07:04PM 57.9646 -149.4172 277° West 468 539 40,000  Level FlightAware ADS-B (PAEN / ENA)
07:05PM 57.9779 -149.6309 277° West 468 539 40,000  Level FlightAware ADS-B (PAEN / ENA)
07:05PM 57.9837 -149.7260 277° West 467 537 40,000  Level FlightAware ADS-B (PAEN / ENA)
07:06PM 57.9964 -149.9378 277° West 466 536 40,000  Level FlightAware ADS-B (PAEN / ENA)
07:06PM 58.0032 -150.0611 276° West 468 539 40,000  Level FlightAware ADS-B (PAEN / ENA)
07:07PM 58.0080 -150.1965 274° West 468 539 40,000  Level FlightAware ADS-B (PAEN / ENA)
07:08PM 58.0134 -150.3593 274° West 467 537 40,000  Level FlightAware ADS-B (PAEN / ENA)
07:08PM 58.0199 -150.5452 274° West 466 536 40,000  Level FlightAware ADS-B (PAEN / ENA)
07:09PM 58.0240 -150.6608 274° West 466 536 40,000  Level FlightAware ADS-B (PAEN / ENA)
07:09PM 58.0280 -150.7780 274° West 465 535 40,000  Level FlightAware ADS-B (PAEN / ENA)
07:10PM 58.0316 -150.8829 274° West 465 535 40,000  Level FlightAware ADS-B (PAEN / ENA)
07:11PM 58.0379 -151.0801 274° West 464 534 40,000  Level FlightAware ADS-B (PAEN / ENA)
07:11PM 58.0415 -151.1969 273° West 464 534 40,000  Level FlightAware ADS-B (PAEN / ENA)
07:12PM 58.0468 -151.3779 273° West 463 533 40,000  Level FlightAware ADS-B (PAEN / ENA)
07:13PM 58.0515 -151.5482 273° West 463 533 40,000  Level FlightAware ADS-B (PAEN / ENA)
07:13PM 58.0546 -151.6639 273° West 463 533 40,000  Level FlightAware ADS-B (PAEN / ENA)
07:14PM 58.0583 -151.8129 273° West 464 534 40,000  Level FlightAware ADS-B (PAEN / ENA)
07:14PM 58.0627 -151.9885 273° West 464 534 40,000  Level FlightAware ADS-B (PAEN / ENA)
07:15PM 58.0657 -152.1160 273° West 464 534 40,000  Level FlightAware ADS-B (PAEN / ENA)
07:16PM 58.0694 -152.2886 272° West 467 537 40,000  Level FlightAware ADS-B (PAEN / ENA)
07:16PM 58.0719 -152.4073 272° West 468 539 40,000  Level FlightAware ADS-B (PAEN / ENA)
07:17PM 58.0746 -152.5416 272° West 468 539 40,000  Level FlightAware ADS-B (PAEN / ENA)
07:17PM 58.0769 -152.6646 272° West 468 539 40,000  Level FlightAware ADS-B (PAEN / ENA)
07:18PM 58.0800 -152.8427 272° West 470 541 40,000  Level FlightAware ADS-B (PAEN / ENA)
07:18PM 58.0821 -152.9703 272° West 469 540 40,000  Level FlightAware ADS-B (PAEN / ENA)
07:19PM 58.0849 -153.1536 272° West 471 542 40,000  Level FlightAware ADS-B (PAEN / ENA)
07:20PM 58.0866 -153.2789 272° West 469 540 40,000  Level FlightAware ADS-B (PAEN / ENA)
07:20PM 58.0890 -153.4608 272° West 470 541 40,000  Level FlightAware ADS-B (PAEN / ENA)
07:21PM 58.0904 -153.5829 271° West 471 542 40,000  Level FlightAware ADS-B (PAEN / ENA)
07:22PM 58.0923 -153.7669 271° West 471 542 40,000  Level FlightAware ADS-B (PAEN / ENA)
07:22PM 58.0935 -153.8942 271° West 472 543 40,000  Level FlightAware ADS-B (PAEN / ENA)
07:23PM 58.0945 -154.0153 271° West 473 544 40,000  Level FlightAware ADS-B (PAEN / ENA)
07:23PM 58.0953 -154.1263 271° West 471 542 40,000  Level FlightAware ADS-B (PAEN / ENA)
07:24PM 58.0964 -154.3182 271° West 469 540 40,000  Level FlightAware ADS-B (PAEN / ENA)
07:24PM 58.0971 -154.4464 271° West 470 541 40,000  Level FlightAware ADS-B (PAEN / ENA)
07:25PM 58.0977 -154.6226 270° West 469 540 40,000  Level FlightAware ADS-B (PAEN / ENA)
07:26PM 58.0982 -154.8117 270° West 471 542 40,000  Level FlightAware ADS-B (PAEN / ENA)
07:26PM 58.0984 -154.9367 270° West 465 535 40,000  Level FlightAware ADS-B (PAEN / ENA)
07:27PM 58.0983 -155.0469 270° West 467 537 40,000  Level FlightAware ADS-B (PAEN / ENA)
07:28PM 58.0982 -155.2317 270° West 477 549 40,000  Level FlightAware ADS-B (PAEN / ENA)
07:28PM 58.0980 -155.3515 270° West 484 557 40,000  Level FlightAware ADS-B (PAEN / ENA)
07:29PM 58.0973 -155.4809 269° West 482 555 40,000  Level FlightAware ADS-B (PAEN / ENA)
07:30PM 58.0956 -155.8122 270° West 482 555 40,000  Level FlightAware ADS-B (PAEN / ENA)
07:30PM 58.0952 -155.8876 270° West 481 554 40,000  Level FlightAware ADS-B (PAEN / ENA)
07:31PM 58.0938 -156.0798 269° West 480 552 40,000  Level FlightAware ADS-B (PAEN / ENA)
07:32PM 58.0918 -156.3012 269° West 483 556 40,000  Level FlightAware ADS-B (PAEN / ENA)
07:33PM 58.0894 -156.5005 269° West 481 554 40,000  Level FlightAware ADS-B (PAEN / ENA)
07:33PM 58.0833 -156.6333 269° West 480 552 40,000  Level Anchorage Center
07:34PM 58.0667 -156.8833 263° West 480 552 40,000  Level Anchorage Center
07:35PM 58.0667 -157.1333 270° West 480 552 40,000  Level Anchorage Center
07:36PM 58.0667 -157.4000 270° West 480 552 40,000  Level Anchorage Center
07:37PM 58.0667 -157.6500 270° West 480 552 40,000  Level Anchorage Center
07:38PM 58.0500 -157.9167 263° West 490 564 40,000  Level Anchorage Center
07:39PM 58.0500 -158.1667 270° West 490 564 40,000  Level Anchorage Center
07:40PM 58.0500 -158.4333 270° West 480 552 40,000  Level Anchorage Center
07:41PM 58.0333 -158.6833 263° West 490 564 40,000  Level Anchorage Center
07:42PM 58.0333 -158.9500 270° West 490 564 40,000  Level Anchorage Center
07:43PM 58.0167 -159.2000 263° West 480 552 40,000  Level Anchorage Center
07:44PM 58.0167 -159.4667 270° West 490 564 40,000  Level Anchorage Center
07:45PM 58.0000 -159.7000 262° West 490 564 40,000  Level Anchorage Center
07:46PM 58.0000 -159.9667 270° West 490 564 40,000  Level Anchorage Center
07:47PM 57.9833 -160.2167 263° West 500 575 40,000  Level Anchorage Center
07:48PM 57.9667 -160.4833 263° West 480 552 40,000  Level Anchorage Center
07:49PM 57.9500 -160.7500 263° West 500 575 40,000  Level Anchorage Center
07:50PM 57.9333 -161.0000 263° West 500 575 40,000  Level Anchorage Center
07:51PM 57.9167 -161.2667 263° West 500 575 40,000  Level Anchorage Center
07:52PM 57.8833 -161.5333 257° West 500 575 40,000  Level Anchorage Center
07:53PM 57.8667 -161.8000 263° West 510 587 40,000  Level Anchorage Center
07:54PM 57.8500 -162.0667 263° West 500 575 40,000  Level Anchorage Center
07:55PM 57.8333 -162.3333 263° West 510 587 40,000  Level Anchorage Center
07:58PM 57.7667 -163.1833 262° West 500 575 40,000  Level Anchorage Center
07:59PM 57.7500 -163.4500 263° West 520 598 40,000  Level Anchorage Center
08:00PM 57.7167 -163.7167 257° West 500 575 40,000  Level Anchorage Center
08:01PM 57.7000 -163.9833 263° West 510 587 40,000  Level Anchorage Center
08:02PM 57.6667 -164.2500 257° West 510 587 40,000  Level Anchorage Center
08:03PM 57.6500 -164.5167 263° West 510 587 40,000  Level Anchorage Center
08:04PM 57.6167 -164.7833 257° West 520 598 40,000  Level Anchorage Center
08:05PM 57.6000 -165.0500 263° West 510 587 40,000  Level Anchorage Center
08:06PM 57.5667 -165.3167 257° West 510 587 40,000  Level Anchorage Center
08:07PM 57.5333 -165.5833 257° West 520 598 40,000  Level Anchorage Center
08:08PM 57.5167 -165.8500 263° West 520 598 40,000  Level Anchorage Center
08:09PM 57.4833 -166.1000 256° West 500 575 40,000  Level Anchorage Center
08:10PM 57.4667 -166.3167 262° West 510 587 40,000  Level Anchorage Center
08:11PM 57.4333 -166.6333 259° West 510 587 40,000  Level Anchorage Center
08:12PM 57.4000 -166.8333 253° West 520 598 40,000  Level Anchorage Center
08:13PM 57.3667 -167.1167 258° West 530 610 40,000  Level Anchorage Center
08:14PM 57.3333 -167.3667 256° West 510 587 40,000  Level Anchorage Center
08:15PM 57.3000 -167.6333 257° West 520 598 40,000  Level Anchorage Center
08:16PM 57.2667 -167.9000 257° West 520 598 40,000  Level Anchorage Center
08:17PM 57.2333 -168.1667 257° West 520 598 40,000  Level Anchorage Center
08:18PM 57.2000 -168.4167 256° West 520 598 40,000  Level Anchorage Center
08:19PM 57.1667 -168.6833 257° West 520 598 40,000  Level Anchorage Center
08:20PM 57.1333 -168.9500 257° West 520 598 40,000  Level Anchorage Center
08:21PM 57.1000 -169.2000 256° West 520 598 40,000  Level Anchorage Center
08:22PM 57.0667 -169.4667 257° West 520 598 40,000  Level Anchorage Center
08:23PM 57.0333 -169.7333 257° West 520 598 40,000  Level Anchorage Center
08:24PM 57.0000 -169.9833 256° West 520 598 40,000  Level Anchorage Center
08:25PM 56.9667 -170.2667 258° West 520 598 40,000  Level Anchorage Center
08:26PM 56.9667 -170.5333 270° West 510 587 40,000  Level Anchorage Center
08:27PM 56.9333 -170.8000 257° West 510 587 40,000  Level Anchorage Center
08:28PM 56.9167 -171.0667 264° West 520 598 40,000  Level Anchorage Center
08:29PM 56.9000 -171.3333 264° West 530 610 40,000  Level Anchorage Center
08:30PM 56.8833 -171.6000 264° West 520 598 40,000  Level Anchorage Center
08:31PM 56.8667 -171.8667 264° West 520 598 40,000  Level Anchorage Center
08:32PM 56.8500 -172.1333 264° West 530 610 40,000  Level Anchorage Center
08:33PM 56.8333 -172.4000 264° West 520 598 40,000  Level Anchorage Center
08:34PM 56.8167 -172.6500 263° West 520 598 40,000  Level Anchorage Center
08:35PM 56.7833 -172.9167 257° West 510 587 40,000  Level Anchorage Center
08:36PM 56.7667 -173.1833 264° West 520 598 40,000  Level Anchorage Center
08:37PM 56.7500 -173.4500 264° West 520 598 40,000  Level Anchorage Center
08:38PM 56.7167 -173.7000 256° West 520 598 40,000  Level Anchorage Center
08:39PM 56.7000 -173.9667 264° West 530 610 40,000  Level Anchorage Center
08:40PM 56.6667 -174.2333 257° West 520 598 40,000  Level Anchorage Center
08:41PM 56.6500 -174.5000 264° West 520 598 40,000  Level Anchorage Center
08:42PM 56.6333 -174.7500 263° West 520 598 40,000  Level Anchorage Center
08:43PM 56.6000 -175.0167 257° West 520 598 40,000  Level Anchorage Center
08:44PM 56.5667 -175.2667 256° West 520 598 40,000  Level Anchorage Center
08:45PM 56.5500 -175.5333 264° West 520 598 40,000  Level Anchorage Center
08:46PM 56.5167 -175.7833 257° West 510 587 40,000  Level Anchorage Center
08:47PM 56.4833 -176.0500 257° West 520 598 40,000  Level Anchorage Center
08:48PM 56.4667 -176.3000 263° West 510 587 40,000  Level Anchorage Center
08:49PM 56.4333 -176.5500 257° West 510 587 40,000  Level Anchorage Center
08:50PM 56.4000 -176.8000 257° West 510 587 40,000  Level Anchorage Center
08:53PM 56.3500 -177.3500 258° West 519 597 40,000  Level Anchorage Center
09:03PM 56.0333 -179.7667 256° West 515 593 40,000  Level Anchorage Center
09:04PM 55.9747 179.7433 260° West 519 597 40,000  Level FlightAware Transoceanic
09:04PM 56.0000 180.0000 260° West 514 592 40,000  Level Anchorage Center
09:12PM 55.7667 177.8333 258° West 521 600 40,000  Level Anchorage Center
09:15PM 55.6667 177.0167 257° West 520 598 40,000  Level Anchorage Center
09:16PM 55.6616 176.9437 258° West 514 592 40,000  Level FlightAware Transoceanic
09:16PM 55.6333 176.8000 255° West 510 587 40,000  Level Anchorage Center
09:17PM 55.6300 176.6915 257° West 514 592 40,000  Level FlightAware Transoceanic
09:17PM 55.6000 176.5333 258° West 520 598 40,000  Level Anchorage Center
09:18PM 55.5847 176.3483 257° West 521 600 40,000  Level FlightAware Transoceanic
09:18PM 55.5667 176.3167 255° West 520 598 40,000  Level Anchorage Center
09:19PM 55.5526 176.1021 257° West 521 600 40,000  Level FlightAware Transoceanic
09:19PM 55.5333 176.0500 258° West 510 587 40,000  Level Anchorage Center
09:20PM 55.5201 175.8564 257° West 521 600 40,000  Level FlightAware Transoceanic
09:20PM 55.5000 175.8333 255° West 510 587 40,000  Level Anchorage Center
09:21PM 55.4667 175.5667 258° West 510 587 40,000  Level Anchorage Center
09:22PM 55.4333 175.3000 258° West 520 598 40,000  Level Anchorage Center
09:23PM 55.4000 175.0833 255° West 510 587 40,000  Level Anchorage Center
09:24PM 55.3667 174.8167 258° West 510 587 40,000  Level Anchorage Center
09:25PM 55.3333 174.6000 255° West 510 587 40,000  Level Anchorage Center
09:26PM 55.3000 174.3333 258° West 510 587 40,000  Level Anchorage Center
09:27PM 55.2667 174.1333 254° West 510 587 40,000  Level Anchorage Center
09:28PM 55.2333 173.8667 258° West 520 598 40,000  Level Anchorage Center
09:29PM 55.1833 173.6000 252° West 520 598 40,000  Level Anchorage Center
09:30PM 55.1500 173.3833 255° West 520 598 40,000  Level Anchorage Center
09:31PM 55.1167 173.1167 258° West 520 598 40,000  Level Anchorage Center
09:32PM 55.0833 172.9167 254° West 510 587 40,000  Level Anchorage Center
09:33PM 55.0333 172.6500 252° West 510 587 40,000  Level Anchorage Center
09:34PM 55.0000 172.4500 254° West 520 598 40,000  Level Anchorage Center
09:35PM 54.9500 172.1833 252° West 520 598 40,000  Level Anchorage Center
09:36PM 54.9000 171.9167 252° West 510 587 40,000  Level Anchorage Center
09:37PM 54.8333 171.7500 235° Southwest 490 564 40,000  Level Anchorage Center
09:38PM 54.7333 171.5333 231° Southwest 510 587 40,000  Level Anchorage Center
09:39PM 54.6667 171.3500 238° Southwest 520 598 40,000  Level Anchorage Center
09:40PM 54.5833 171.1500 234° Southwest 500 575 40,000  Level Anchorage Center
09:41PM 54.5000 170.9667 232° Southwest 520 598 40,000  Level Anchorage Center
09:42PM 54.4167 170.7667 234° Southwest 490 564 40,000  Level Anchorage Center
09:43PM 54.3500 170.6000 236° Southwest 490 564 40,000  Level Anchorage Center
09:44PM 54.2500 170.3833 232° Southwest 520 598 40,000  Level Anchorage Center
09:45PM 54.1667 170.1833 235° Southwest 490 564 40,000  Level Anchorage Center
09:46PM 54.0833 170.0167 230° Southwest 520 598 40,000  Level Anchorage Center
09:47PM 54.0000 169.8167 235° Southwest 500 575 40,000  Level Anchorage Center
09:48PM 53.9333 169.6500 236° Southwest 500 575 40,000  Level Anchorage Center
09:49PM 53.8500 169.4500 235° Southwest 480 552 40,000  Level Anchorage Center
09:50PM 53.7667 169.3000 227° Southwest 490 564 40,000  Level Anchorage Center
09:51PM 53.6833 169.0833 237° Southwest 510 587 40,000  Level Anchorage Center
09:52PM 53.6167 168.8500 244° Southwest 510 587 40,000  Level Anchorage Center
09:53PM 53.5500 168.6833 236° Southwest 500 575 40,000  Level Anchorage Center
09:54PM 53.4833 168.4667 243° Southwest 490 564 40,000  Level Anchorage Center
10:01PM 53.0833 167.3333 239° Southwest 495 570 40,000  Level Anchorage Center
10:09PM 52.4000 165.4833 238° Southwest 494 568 40,000  Level Anchorage Center
10:19PM 51.6833 163.7000 236° Southwest 496 571 40,000  Level Anchorage Center
10:19PM 51.6500 163.6500 236° Southwest 493 567 40,000  Level Anchorage Center
10:29PM 50.9333 161.9500 235° Southwest 486 559 40,000  Level Anchorage Center
10:38PM 50.2000 160.3833 234° Southwest 486 559 40,000  Level Anchorage Center
10:38PM 50.1667 160.3000 234° Southwest 487 560 40,000  Level Anchorage Center
10:39PM 50.1286 160.2019 233° Southwest 486 559 40,000  Level FlightAware Transoceanic
10:40PM 50.0467 160.0304 233° Southwest 486 559 40,000  Level FlightAware Transoceanic
10:41PM 49.9646 159.8594 233° Southwest 486 559 40,000  Level FlightAware Transoceanic
10:42PM 49.8822 159.6890 233° Southwest 486 559 40,000  Level FlightAware Transoceanic
10:43PM 49.7996 159.5192 233° Southwest 486 559 40,000  Level FlightAware Transoceanic
10:44PM 49.7167 159.3500 233° Southwest 486 559 40,000  Level FlightAware Transoceanic
10:45PM 49.6356 159.1846 233° Southwest 487 560 40,000  Level FlightAware Transoceanic
10:46PM 49.5544 159.0198 233° Southwest 487 560 40,000  Level FlightAware Transoceanic
10:47PM 49.4729 158.8555 233° Southwest 487 560 40,000  Level FlightAware Transoceanic
10:48PM 49.3912 158.6918 232° Southwest 487 560 40,000  Level FlightAware Transoceanic
10:49PM 49.3092 158.5286 232° Southwest 487 560 40,000  Level FlightAware Transoceanic
10:50PM 49.2270 158.3659 232° Southwest 487 560 40,000  Level FlightAware Transoceanic
10:51PM 49.1446 158.2038 232° Southwest 487 560 40,000  Level FlightAware Transoceanic
10:52PM 49.0619 158.0422 232° Southwest 487 560 40,000  Level FlightAware Transoceanic
10:53PM 48.9791 157.8812 232° Southwest 487 560 40,000  Level FlightAware Transoceanic
10:54PM 48.8960 157.7207 232° Southwest 487 560 40,000  Level FlightAware Transoceanic
10:55PM 48.8127 157.5607 232° Southwest 487 560 40,000  Level FlightAware Transoceanic
10:56PM 48.7291 157.4013 231° Southwest 487 560 40,000  Level FlightAware Transoceanic
10:57PM 48.6454 157.2424 231° Southwest 487 560 40,000  Level FlightAware Transoceanic
10:58PM 48.5614 157.0840 231° Southwest 487 560 40,000  Level FlightAware Transoceanic
10:59PM 48.4772 156.9262 231° Southwest 487 560 40,000  Level FlightAware Transoceanic
11:00PM 48.3928 156.7688 231° Southwest 487 560 40,000  Level FlightAware Transoceanic
11:01PM 48.3082 156.6120 231° Southwest 487 560 40,000  Level FlightAware Transoceanic
11:02PM 48.2234 156.4557 231° Southwest 487 560 40,000  Level FlightAware Transoceanic
11:03PM 48.1383 156.3000 231° Southwest 487 560 40,000  Level FlightAware Transoceanic
11:04PM 48.0531 156.1447 231° Southwest 487 560 40,000  Level FlightAware Transoceanic
11:05PM 47.9676 155.9900 230° Southwest 487 560 40,000  Level FlightAware Transoceanic
11:06PM 47.8820 155.8358 230° Southwest 487 560 40,000  Level FlightAware Transoceanic
11:07PM 47.7961 155.6820 230° Southwest 487 560 40,000  Level FlightAware Transoceanic
11:08PM 47.7100 155.5288 230° Southwest 487 560 40,000  Level FlightAware Transoceanic
11:09PM 47.6237 155.3761 230° Southwest 487 560 40,000  Level FlightAware Transoceanic
11:10PM 47.5373 155.2239 230° Southwest 487 560 40,000  Level FlightAware Transoceanic
11:11PM 47.4506 155.0722 230° Southwest 487 560 40,000  Level FlightAware Transoceanic
11:12PM 47.3637 154.9210 230° Southwest 487 560 40,000  Level FlightAware Transoceanic
11:13PM 47.2766 154.7703 230° Southwest 487 560 40,000  Level FlightAware Transoceanic
11:14PM 47.1893 154.6201 229° Southwest 487 560 40,000  Level FlightAware Transoceanic
11:15PM 47.1019 154.4704 229° Southwest 487 560 40,000  Level FlightAware Transoceanic
11:16PM 47.0142 154.3212 229° Southwest 487 560 40,000  Level FlightAware Transoceanic
11:17PM 46.9263 154.1725 229° Southwest 487 560 40,000  Level FlightAware Transoceanic
11:18PM 46.8383 154.0242 229° Southwest 487 560 40,000  Level FlightAware Transoceanic
11:19PM 46.7501 153.8765 229° Southwest 487 560 40,000  Level FlightAware Transoceanic
11:20PM 46.6616 153.7292 229° Southwest 487 560 40,000  Level FlightAware Transoceanic
11:21PM 46.5730 153.5824 229° Southwest 487 560 40,000  Level FlightAware Transoceanic
11:22PM 46.4842 153.4361 229° Southwest 487 560 40,000  Level FlightAware Transoceanic
11:23PM 46.3952 153.2903 228° Southwest 487 560 40,000  Level FlightAware Transoceanic
11:24PM 46.3060 153.1449 228° Southwest 487 560 40,000  Level FlightAware Transoceanic
11:25PM 46.2188 153.0034 228° Southwest  Level FlightAware Approximate
11:26PM 46.1312 152.8626 228° Southwest  Level FlightAware Approximate
11:27PM 46.1330 152.8665 228° Southwest  Level FlightAware Approximate
11:28PM 46.0450 152.7269 228° Southwest  Level FlightAware Approximate
11:29PM 45.9569 152.5877 228° Southwest  Level FlightAware Approximate
11:30PM 45.8686 152.4489 228° Southwest  Level FlightAware Approximate
11:31PM 45.7801 152.3106 227° Southwest  Level FlightAware Approximate
11:32PM 45.6914 152.1727 227° Southwest  Level FlightAware Approximate
11:33PM 45.6026 152.0353 227° Southwest  Level FlightAware Approximate
11:34PM 45.5136 151.8983 227° Southwest  Level FlightAware Approximate
11:35PM 45.4245 151.7617 227° Southwest  Level FlightAware Approximate
11:36PM 45.3352 151.6256 227° Southwest  Level FlightAware Approximate
11:37PM 45.2457 151.4899 227° Southwest  Level FlightAware Approximate
11:38PM 45.1561 151.3546 227° Southwest  Level FlightAware Approximate
11:39PM 45.0663 151.2197 227° Southwest  Level FlightAware Approximate
11:40PM 44.9763 151.0853 227° Southwest  Level FlightAware Approximate
11:41PM 44.8862 150.9513 227° Southwest  Level FlightAware Approximate
11:42PM 44.7960 150.8177 226° Southwest  Level FlightAware Approximate
11:43PM 44.7056 150.6845 226° Southwest  Level FlightAware Approximate
11:44PM 44.6150 150.5517 226° Southwest  Level FlightAware Approximate
11:45PM 44.5243 150.4194 226° Southwest  Level FlightAware Approximate
11:46PM 44.4334 150.2874 226° Southwest  Level FlightAware Approximate
11:47PM 44.3424 150.1559 226° Southwest  Level FlightAware Approximate
11:48PM 44.2512 150.0248 226° Southwest  Level FlightAware Approximate
11:49PM 44.1599 149.8941 226° Southwest  Level FlightAware Approximate
11:50PM 44.0684 149.7638 226° Southwest  Level FlightAware Approximate
11:51PM 43.9768 149.6339 226° Southwest  Level FlightAware Approximate
11:52PM 43.8850 149.5043 226° Southwest  Level FlightAware Approximate
11:53PM 43.7931 149.3752 225° Southwest  Level FlightAware Approximate
11:54PM 43.7010 149.2465 225° Southwest  Level FlightAware Approximate
11:55PM 43.6088 149.1182 225° Southwest  Level FlightAware Approximate
11:56PM 43.5165 148.9903 225° Southwest  Level FlightAware Approximate
11:57PM 43.4240 148.8627 225° Southwest  Level FlightAware Approximate
11:58PM 43.3314 148.7356 225° Southwest  Level FlightAware Approximate
11:59PM 43.2386 148.6089 225° Southwest  Level FlightAware Approximate
12:00AM 43.1457 148.4825 225° Southwest  Level FlightAware Approximate
12:01AM 43.0526 148.3565 225° Southwest  Level FlightAware Approximate
12:02AM 42.9594 148.2309 225° Southwest  Level FlightAware Approximate
12:03AM 42.8661 148.1057 225° Southwest  Level FlightAware Approximate
12:04AM 42.7727 147.9808 224° Southwest  Level FlightAware Approximate
12:05AM 42.6791 147.8564 224° Southwest  Level FlightAware Approximate
12:06AM 42.5854 147.7323 224° Southwest  Level FlightAware Approximate
12:07AM 42.4915 147.6086 224° Southwest  Level FlightAware Approximate
12:08AM 42.3975 147.4852 224° Southwest  Level FlightAware Approximate
12:09AM 42.3046 147.3617 225° Southwest  Level FlightAware Approximate
12:10AM 42.2117 147.2383 225° Southwest  Level FlightAware Approximate
12:11AM 42.1183 147.1148 224° Southwest  Level FlightAware Approximate
12:12AM 42.0247 146.9916 224° Southwest  Level FlightAware Approximate
12:13AM 41.9310 146.8687 224° Southwest  Level FlightAware Approximate
12:14AM 41.8359 146.7480 223° Southwest  Level FlightAware Approximate
12:15AM 41.7405 146.6279 223° Southwest  Level FlightAware Approximate
12:16AM 41.6451 146.5084 223° Southwest  Level FlightAware Approximate
12:17AM 41.5495 146.3892 223° Southwest  Level FlightAware Approximate
12:18AM 41.4539 146.2704 223° Southwest  Level FlightAware Approximate
12:19AM 41.3581 146.1520 223° Southwest  Level FlightAware Approximate
12:20AM 41.2622 146.0338 223° Southwest  Level FlightAware Approximate
12:21AM 41.1662 145.9161 224° Southwest  Level FlightAware Approximate
12:22AM 41.0715 145.7966 224° Southwest  Level FlightAware Approximate
12:23AM 40.9767 145.6774 224° Southwest  Level FlightAware Approximate
12:24AM 40.8818 145.5586 223° Southwest  Level FlightAware Approximate
12:25AM 40.7868 145.4401 223° Southwest  Level FlightAware Approximate
12:26AM 40.6916 145.3220 223° Southwest  Level FlightAware Approximate
12:27AM 40.5963 145.2041 223° Southwest  Level FlightAware Approximate
12:28AM 40.5009 145.0867 223° Southwest  Level FlightAware Approximate
12:29AM 40.4053 144.9697 223° Southwest  Level FlightAware Approximate
12:30AM 40.3090 144.8538 223° Southwest  Level FlightAware Approximate
12:31AM 40.2126 144.7383 222° Southwest  Level FlightAware Approximate
12:32AM 40.1161 144.6231 222° Southwest  Level FlightAware Approximate
12:33AM 40.0194 144.5082 222° Southwest  Level FlightAware Approximate
12:34AM 39.9226 144.3937 222° Southwest  Level FlightAware Approximate
12:35AM 39.8258 144.2795 222° Southwest  Level FlightAware Approximate
12:36AM 39.7288 144.1656 222° Southwest  Level FlightAware Approximate
12:37AM 39.6317 144.0520 222° Southwest  Level FlightAware Approximate
12:38AM 39.5345 143.9388 222° Southwest  Level FlightAware Approximate
12:39AM 39.4371 143.8258 222° Southwest  Level FlightAware Approximate
12:40AM 39.3397 143.7132 222° Southwest  Level FlightAware Approximate
12:41AM 39.2422 143.6009 222° Southwest  Level FlightAware Approximate
12:42AM 39.1442 143.4894 221° Southwest  Level FlightAware Approximate
12:43AM 39.0456 143.3790 221° Southwest  Level FlightAware Approximate
12:44AM 38.9469 143.2688 221° Southwest  Level FlightAware Approximate
12:45AM 38.8342 143.1916 197° South  Level FlightAware Approximate
12:46AM 38.7090 143.1439 197° South  Level FlightAware Approximate
12:47AM 38.5837 143.0965 197° South  Level FlightAware Approximate
12:48AM 38.4584 143.0492 196° South  Level FlightAware Approximate
12:49AM 38.3331 143.0020 196° South  Level FlightAware Approximate
12:50AM 38.2078 142.9550 196° South  Level FlightAware Approximate
12:51AM 38.0824 142.9082 196° South  Level FlightAware Approximate
12:52AM 37.9570 142.8616 196° South  Level FlightAware Approximate
12:53AM 37.8316 142.8151 196° South  Level FlightAware Approximate
12:54AM 37.7062 142.7687 196° South  Level FlightAware Approximate
12:55AM 37.5808 142.7226 196° South  Level FlightAware Approximate
12:56AM 37.4554 142.6765 196° South  Level FlightAware Approximate
12:57AM 37.3299 142.6307 196° South  Level FlightAware Approximate
12:58AM 37.2044 142.5849 196° South  Level FlightAware Approximate
12:59AM 37.0797 142.5361 197° South  Level FlightAware Approximate
01:00AM 36.9550 142.4873 197° South  Level FlightAware Approximate
01:01AM 36.8303 142.4386 197° South  Level FlightAware Approximate
01:02AM 36.7043 142.3958 195° South  Level FlightAware Approximate
01:03AM 36.5780 142.3538 195° South  Level FlightAware Approximate
01:04AM 36.4531 142.3066 195° South  Level FlightAware Approximate
01:05AM 36.3269 142.2645 195° South  Level FlightAware Approximate
01:06AM 36.2007 142.2224 195° South  Level FlightAware Approximate
01:07AM 36.0746 142.1804 195° South  Level FlightAware Approximate
01:08AM 36.0180 142.0596 260° West  Level FlightAware Approximate
01:09AM 35.9788 141.9057 252° West  Level FlightAware Approximate
01:10AM 35.9383 141.7522 252° West  Level FlightAware Approximate
01:11AM 35.8999 141.5981 265° West  Level FlightAware Approximate
01:12AM 35.8892 141.4373 265° West  Level FlightAware Approximate
01:13AM 35.8714 141.2779 258° West  Level FlightAware Approximate
01:14AM 35.8462 141.1197 261° West  Level FlightAware Approximate
01:15AM 35.8264 140.9604 261° West  Level FlightAware Approximate
01:16AM 35.8130 140.8006 262° West  Level FlightAware Approximate
01:17AM 35.7930 140.6414 258° West  Level FlightAware Approximate
01:18AM 35.7667 140.4837 258° West  Level FlightAware Approximate
01:19AM 35.7500 140.3833 253° West  Level FlightAware Approximate
01:20AM 35.7647 140.3864 253° West  Level Estimated
01:21AM 35.7647 140.3864 253° West  Level Estimated
01:22AM 35.7647 140.3864 253° West  Level Estimated
01:23AM 35.7647 140.3864 253° West  Level Estimated
01:24AM 35.7647 140.3864 253° West  Level Estimated
01:25AM 35.7647 140.3864 253° West  Level Estimated
01:26AM 35.7647 140.3864 253° West  Level Estimated
01:27AM 35.7647 140.3864 253° West  Level Estimated
01:28AM 35.7647 140.3864 253° West  Level Estimated
01:29AM 35.7647 140.3864 253° West  Level Estimated
01:30AM 35.7647 140.3864 253° West  Level Estimated
01:31AM 35.7647 140.3864 253° West  Level Estimated
01:32AM 35.7647 140.3864 253° West  Level Estimated
01:33AM 35.7647 140.3864 253° West  Level Estimated
01:34AM 35.7647 140.3864 253° West  Level Estimated
01:35AM 35.7647 140.3864 253° West  Level Estimated
01:36AM 35.7647 140.3864 253° West  Level Estimated
01:37AM 35.7647 140.3864 253° West  Level Estimated
01:38AM 35.7647 140.3864 253° West  Level Estimated
01:39AM 35.7647 140.3864 253° West  Level Estimated
01:40AM 35.7647 140.3864 253° West  Level Estimated